sensor_id;sensor_type;location;lat;lon;timestamp;P1;durP1;ratioP1;P2;durP2;ratioP2
59880;SDS011;45751;51.380;10.326;2023-05-07T00:00:36;38.35;;;15.13;;
59880;SDS011;45751;51.380;10.326;2023-05-07T00:03:03;37.40;;;15.55;;
59880;SDS011;45751;51.380;10.326;2023-05-07T00:05:30;41.50;;;16.85;;
59880;SDS011;45751;51.380;10.326;2023-05-07T00:07:57;40.80;;;16.13;;
59880;SDS011;45751;51.380;10.326;2023-05-07T00:10:25;43.90;;;16.40;;
59880;SDS011;45751;51.380;10.326;2023-05-07T00:12:52;40.53;;;15.93;;
59880;SDS011;45751;51.380;10.326;2023-05-07T00:15:19;42.55;;;17.60;;
59880;SDS011;45751;51.380;10.326;2023-05-07T00:17:46;42.10;;;16.75;;
59880;SDS011;45751;51.380;10.326;2023-05-07T00:20:13;39.10;;;15.55;;
59880;SDS011;45751;51.380;10.326;2023-05-07T00:22:40;43.28;;;15.25;;
59880;SDS011;45751;51.380;10.326;2023-05-07T00:25:07;44.88;;;16.55;;
59880;SDS011;45751;51.380;10.326;2023-05-07T00:27:34;41.67;;;15.35;;
59880;SDS011;45751;51.380;10.326;2023-05-07T00:30:01;43.80;;;16.23;;
59880;SDS011;45751;51.380;10.326;2023-05-07T00:32:28;44.30;;;16.25;;
59880;SDS011;45751;51.380;10.326;2023-05-07T00:34:54;46.42;;;17.08;;
59880;SDS011;45751;51.380;10.326;2023-05-07T00:37:21;44.28;;;15.70;;
59880;SDS011;45751;51.380;10.326;2023-05-07T00:39:48;41.03;;;15.90;;
59880;SDS011;45751;51.380;10.326;2023-05-07T00:42:15;48.88;;;18.27;;
59880;SDS011;45751;51.380;10.326;2023-05-07T00:44:42;42.03;;;16.27;;
59880;SDS011;45751;51.380;10.326;2023-05-07T00:47:09;40.72;;;15.18;;
59880;SDS011;45751;51.380;10.326;2023-05-07T00:49:41;48.13;;;16.63;;
59880;SDS011;45751;51.380;10.326;2023-05-07T00:52:11;45.30;;;16.27;;
59880;SDS011;45751;51.380;10.326;2023-05-07T00:54:40;43.95;;;17.35;;
59880;SDS011;45751;51.380;10.326;2023-05-07T00:57:09;44.83;;;16.48;;
59880;SDS011;45751;51.380;10.326;2023-05-07T00:59:37;40.47;;;14.70;;
59880;SDS011;45751;51.380;10.326;2023-05-07T01:02:04;42.10;;;17.23;;
59880;SDS011;45751;51.380;10.326;2023-05-07T01:04:31;39.05;;;14.95;;
59880;SDS011;45751;51.380;10.326;2023-05-07T01:06:58;42.97;;;16.60;;
59880;SDS011;45751;51.380;10.326;2023-05-07T01:09:27;41.13;;;15.80;;
59880;SDS011;45751;51.380;10.326;2023-05-07T01:11:55;43.28;;;15.85;;
59880;SDS011;45751;51.380;10.326;2023-05-07T01:14:23;40.30;;;15.35;;
59880;SDS011;45751;51.380;10.326;2023-05-07T01:16:52;37.40;;;14.88;;
59880;SDS011;45751;51.380;10.326;2023-05-07T01:19:21;39.95;;;15.80;;
59880;SDS011;45751;51.380;10.326;2023-05-07T01:21:48;38.90;;;14.57;;
59880;SDS011;45751;51.380;10.326;2023-05-07T01:24:18;37.67;;;14.95;;
59880;SDS011;45751;51.380;10.326;2023-05-07T01:26:45;40.15;;;14.32;;
59880;SDS011;45751;51.380;10.326;2023-05-07T01:29:15;36.63;;;13.98;;
59880;SDS011;45751;51.380;10.326;2023-05-07T01:31:42;35.65;;;13.57;;
59880;SDS011;45751;51.380;10.326;2023-05-07T01:34:10;37.13;;;14.23;;
59880;SDS011;45751;51.380;10.326;2023-05-07T01:36:39;37.90;;;15.65;;
59880;SDS011;45751;51.380;10.326;2023-05-07T01:39:08;39.63;;;14.13;;
59880;SDS011;45751;51.380;10.326;2023-05-07T01:41:36;44.80;;;16.00;;
59880;SDS011;45751;51.380;10.326;2023-05-07T01:44:03;41.38;;;15.55;;
59880;SDS011;45751;51.380;10.326;2023-05-07T01:46:32;35.20;;;14.20;;
59880;SDS011;45751;51.380;10.326;2023-05-07T01:48:59;34.63;;;13.68;;
59880;SDS011;45751;51.380;10.326;2023-05-07T01:51:26;46.70;;;15.23;;
59880;SDS011;45751;51.380;10.326;2023-05-07T01:53:54;44.22;;;15.75;;
59880;SDS011;45751;51.380;10.326;2023-05-07T01:56:21;40.63;;;16.08;;
59880;SDS011;45751;51.380;10.326;2023-05-07T01:58:49;48.47;;;16.55;;
59880;SDS011;45751;51.380;10.326;2023-05-07T02:01:18;38.45;;;14.60;;
59880;SDS011;45751;51.380;10.326;2023-05-07T02:03:46;36.15;;;13.32;;
59880;SDS011;45751;51.380;10.326;2023-05-07T02:06:20;39.15;;;14.40;;
59880;SDS011;45751;51.380;10.326;2023-05-07T02:08:47;44.40;;;15.43;;
59880;SDS011;45751;51.380;10.326;2023-05-07T02:11:15;40.10;;;14.65;;
59880;SDS011;45751;51.380;10.326;2023-05-07T02:13:42;40.80;;;14.48;;
59880;SDS011;45751;51.380;10.326;2023-05-07T02:16:09;44.83;;;14.68;;
59880;SDS011;45751;51.380;10.326;2023-05-07T02:18:37;38.70;;;14.75;;
59880;SDS011;45751;51.380;10.326;2023-05-07T02:21:04;42.28;;;15.85;;
59880;SDS011;45751;51.380;10.326;2023-05-07T02:23:32;39.15;;;14.32;;
59880;SDS011;45751;51.380;10.326;2023-05-07T02:25:59;38.83;;;15.93;;
59880;SDS011;45751;51.380;10.326;2023-05-07T02:28:27;47.72;;;17.00;;
59880;SDS011;45751;51.380;10.326;2023-05-07T02:31:02;39.00;;;13.77;;
59880;SDS011;45751;51.380;10.326;2023-05-07T02:33:30;40.55;;;15.65;;
59880;SDS011;45751;51.380;10.326;2023-05-07T02:36:04;44.80;;;15.73;;
59880;SDS011;45751;51.380;10.326;2023-05-07T02:39:03;42.20;;;14.73;;
59880;SDS011;45751;51.380;10.326;2023-05-07T02:41:30;38.65;;;14.90;;
59880;SDS011;45751;51.380;10.326;2023-05-07T02:43:57;32.88;;;13.00;;
59880;SDS011;45751;51.380;10.326;2023-05-07T02:46:24;39.22;;;15.18;;
59880;SDS011;45751;51.380;10.326;2023-05-07T02:48:58;42.00;;;15.68;;
59880;SDS011;45751;51.380;10.326;2023-05-07T02:51:25;35.78;;;14.02;;
59880;SDS011;45751;51.380;10.326;2023-05-07T02:53:56;39.35;;;14.50;;
59880;SDS011;45751;51.380;10.326;2023-05-07T02:56:25;46.40;;;15.57;;
59880;SDS011;45751;51.380;10.326;2023-05-07T02:58:52;37.88;;;13.73;;
59880;SDS011;45751;51.380;10.326;2023-05-07T03:01:22;36.78;;;13.55;;
59880;SDS011;45751;51.380;10.326;2023-05-07T03:03:56;42.75;;;15.57;;
59880;SDS011;45751;51.380;10.326;2023-05-07T03:06:23;37.17;;;13.45;;
59880;SDS011;45751;51.380;10.326;2023-05-07T03:08:50;40.47;;;15.52;;
59880;SDS011;45751;51.380;10.326;2023-05-07T03:11:17;39.97;;;13.50;;
59880;SDS011;45751;51.380;10.326;2023-05-07T03:13:44;34.65;;;12.65;;
59880;SDS011;45751;51.380;10.326;2023-05-07T03:16:11;42.53;;;14.85;;
59880;SDS011;45751;51.380;10.326;2023-05-07T03:18:38;45.00;;;15.50;;
59880;SDS011;45751;51.380;10.326;2023-05-07T03:21:05;37.10;;;13.05;;
59880;SDS011;45751;51.380;10.326;2023-05-07T03:23:32;44.22;;;14.73;;
59880;SDS011;45751;51.380;10.326;2023-05-07T03:25:59;34.95;;;13.88;;
59880;SDS011;45751;51.380;10.326;2023-05-07T03:28:26;41.28;;;13.50;;
59880;SDS011;45751;51.380;10.326;2023-05-07T03:30:58;43.30;;;13.38;;
59880;SDS011;45751;51.380;10.326;2023-05-07T03:33:25;38.42;;;11.70;;
59880;SDS011;45751;51.380;10.326;2023-05-07T03:35:54;44.20;;;14.43;;
59880;SDS011;45751;51.380;10.326;2023-05-07T03:38:23;38.83;;;12.88;;
59880;SDS011;45751;51.380;10.326;2023-05-07T03:40:50;35.17;;;12.52;;
59880;SDS011;45751;51.380;10.326;2023-05-07T03:43:17;39.28;;;12.50;;
59880;SDS011;45751;51.380;10.326;2023-05-07T03:45:49;31.42;;;12.07;;
59880;SDS011;45751;51.380;10.326;2023-05-07T03:48:21;40.72;;;13.82;;
59880;SDS011;45751;51.380;10.326;2023-05-07T03:50:50;38.25;;;12.65;;
59880;SDS011;45751;51.380;10.326;2023-05-07T03:53:18;48.85;;;14.88;;
59880;SDS011;45751;51.380;10.326;2023-05-07T03:55:45;45.53;;;13.40;;
59880;SDS011;45751;51.380;10.326;2023-05-07T03:58:12;42.17;;;13.65;;
59880;SDS011;45751;51.380;10.326;2023-05-07T04:00:39;44.72;;;13.35;;
59880;SDS011;45751;51.380;10.326;2023-05-07T04:03:27;40.10;;;12.98;;
59880;SDS011;45751;51.380;10.326;2023-05-07T04:05:57;39.70;;;14.32;;
59880;SDS011;45751;51.380;10.326;2023-05-07T04:08:24;44.67;;;13.68;;
59880;SDS011;45751;51.380;10.326;2023-05-07T04:10:56;38.85;;;12.57;;
59880;SDS011;45751;51.380;10.326;2023-05-07T04:13:25;35.42;;;12.40;;
59880;SDS011;45751;51.380;10.326;2023-05-07T04:15:54;39.65;;;12.85;;
59880;SDS011;45751;51.380;10.326;2023-05-07T04:18:22;41.78;;;12.57;;
59880;SDS011;45751;51.380;10.326;2023-05-07T04:20:49;40.33;;;13.25;;
59880;SDS011;45751;51.380;10.326;2023-05-07T04:23:16;38.67;;;12.02;;
59880;SDS011;45751;51.380;10.326;2023-05-07T04:25:43;41.45;;;14.10;;
59880;SDS011;45751;51.380;10.326;2023-05-07T04:28:19;40.70;;;13.48;;
59880;SDS011;45751;51.380;10.326;2023-05-07T04:30:47;35.38;;;12.35;;
59880;SDS011;45751;51.380;10.326;2023-05-07T04:33:14;40.92;;;12.82;;
59880;SDS011;45751;51.380;10.326;2023-05-07T04:35:43;33.42;;;11.73;;
59880;SDS011;45751;51.380;10.326;2023-05-07T04:38:11;31.00;;;11.95;;
59880;SDS011;45751;51.380;10.326;2023-05-07T04:40:38;37.83;;;12.65;;
59880;SDS011;45751;51.380;10.326;2023-05-07T04:43:07;42.60;;;13.35;;
59880;SDS011;45751;51.380;10.326;2023-05-07T04:45:42;36.85;;;12.25;;
59880;SDS011;45751;51.380;10.326;2023-05-07T04:48:10;37.47;;;12.00;;
59880;SDS011;45751;51.380;10.326;2023-05-07T04:50:39;37.88;;;12.50;;
59880;SDS011;45751;51.380;10.326;2023-05-07T04:53:06;35.83;;;12.75;;
59880;SDS011;45751;51.380;10.326;2023-05-07T04:55:33;40.55;;;13.65;;
59880;SDS011;45751;51.380;10.326;2023-05-07T04:58:01;34.70;;;11.77;;
59880;SDS011;45751;51.380;10.326;2023-05-07T05:00:30;37.85;;;12.52;;
59880;SDS011;45751;51.380;10.326;2023-05-07T05:02:59;32.40;;;10.30;;
59880;SDS011;45751;51.380;10.326;2023-05-07T05:05:27;35.33;;;12.98;;
59880;SDS011;45751;51.380;10.326;2023-05-07T05:07:54;40.38;;;12.57;;
59880;SDS011;45751;51.380;10.326;2023-05-07T05:10:22;34.33;;;11.48;;
59880;SDS011;45751;51.380;10.326;2023-05-07T05:12:50;37.55;;;12.60;;
59880;SDS011;45751;51.380;10.326;2023-05-07T05:15:18;36.92;;;11.80;;
59880;SDS011;45751;51.380;10.326;2023-05-07T05:17:46;33.97;;;11.73;;
59880;SDS011;45751;51.380;10.326;2023-05-07T05:20:13;34.42;;;10.32;;
59880;SDS011;45751;51.380;10.326;2023-05-07T05:22:41;25.67;;;9.85;;
59880;SDS011;45751;51.380;10.326;2023-05-07T05:25:10;31.38;;;11.15;;
59880;SDS011;45751;51.380;10.326;2023-05-07T05:27:37;34.80;;;11.68;;
59880;SDS011;45751;51.380;10.326;2023-05-07T05:30:04;32.30;;;11.93;;
59880;SDS011;45751;51.380;10.326;2023-05-07T05:32:33;40.22;;;12.85;;
59880;SDS011;45751;51.380;10.326;2023-05-07T05:35:01;33.13;;;11.43;;
59880;SDS011;45751;51.380;10.326;2023-05-07T05:37:29;42.38;;;12.60;;
59880;SDS011;45751;51.380;10.326;2023-05-07T05:40:00;34.72;;;10.90;;
59880;SDS011;45751;51.380;10.326;2023-05-07T05:42:28;36.67;;;11.88;;
59880;SDS011;45751;51.380;10.326;2023-05-07T05:44:55;31.20;;;10.93;;
59880;SDS011;45751;51.380;10.326;2023-05-07T05:47:23;34.45;;;11.35;;
59880;SDS011;45751;51.380;10.326;2023-05-07T05:49:53;33.83;;;11.93;;
59880;SDS011;45751;51.380;10.326;2023-05-07T05:52:20;29.13;;;11.85;;
59880;SDS011;45751;51.380;10.326;2023-05-07T05:54:49;33.92;;;11.40;;
59880;SDS011;45751;51.380;10.326;2023-05-07T05:57:17;32.25;;;11.23;;
59880;SDS011;45751;51.380;10.326;2023-05-07T05:59:44;30.45;;;12.18;;
59880;SDS011;45751;51.380;10.326;2023-05-07T06:02:14;30.52;;;11.05;;
59880;SDS011;45751;51.380;10.326;2023-05-07T06:04:42;34.30;;;10.85;;
59880;SDS011;45751;51.380;10.326;2023-05-07T06:07:12;29.30;;;9.50;;
59880;SDS011;45751;51.380;10.326;2023-05-07T06:09:39;33.22;;;10.80;;
59880;SDS011;45751;51.380;10.326;2023-05-07T06:12:06;31.73;;;11.07;;
59880;SDS011;45751;51.380;10.326;2023-05-07T06:14:33;32.92;;;10.80;;
59880;SDS011;45751;51.380;10.326;2023-05-07T06:17:00;29.58;;;9.35;;
59880;SDS011;45751;51.380;10.326;2023-05-07T06:19:27;31.38;;;9.38;;
59880;SDS011;45751;51.380;10.326;2023-05-07T06:21:56;29.15;;;9.80;;
59880;SDS011;45751;51.380;10.326;2023-05-07T06:24:24;30.15;;;9.52;;
59880;SDS011;45751;51.380;10.326;2023-05-07T06:26:51;24.25;;;9.05;;
59880;SDS011;45751;51.380;10.326;2023-05-07T06:29:18;24.73;;;9.02;;
59880;SDS011;45751;51.380;10.326;2023-05-07T06:31:45;22.90;;;7.65;;
59880;SDS011;45751;51.380;10.326;2023-05-07T06:34:12;20.08;;;8.20;;
59880;SDS011;45751;51.380;10.326;2023-05-07T06:36:41;17.35;;;7.05;;
59880;SDS011;45751;51.380;10.326;2023-05-07T06:39:16;23.85;;;7.85;;
59880;SDS011;45751;51.380;10.326;2023-05-07T06:41:44;24.10;;;7.85;;
59880;SDS011;45751;51.380;10.326;2023-05-07T06:44:21;23.50;;;8.23;;
59880;SDS011;45751;51.380;10.326;2023-05-07T06:46:58;18.80;;;5.97;;
59880;SDS011;45751;51.380;10.326;2023-05-07T06:49:26;19.75;;;6.18;;
59880;SDS011;45751;51.380;10.326;2023-05-07T06:51:53;19.17;;;6.65;;
59880;SDS011;45751;51.380;10.326;2023-05-07T06:54:20;19.52;;;6.13;;
59880;SDS011;45751;51.380;10.326;2023-05-07T06:56:47;13.65;;;5.47;;
59880;SDS011;45751;51.380;10.326;2023-05-07T06:59:15;16.55;;;6.25;;
59880;SDS011;45751;51.380;10.326;2023-05-07T07:01:42;20.55;;;6.07;;
59880;SDS011;45751;51.380;10.326;2023-05-07T07:04:11;18.63;;;6.93;;
59880;SDS011;45751;51.380;10.326;2023-05-07T07:06:40;19.63;;;6.47;;
59880;SDS011;45751;51.380;10.326;2023-05-07T07:09:10;17.73;;;6.57;;
59880;SDS011;45751;51.380;10.326;2023-05-07T07:11:37;24.40;;;7.55;;
59880;SDS011;45751;51.380;10.326;2023-05-07T07:14:05;17.13;;;6.03;;
59880;SDS011;45751;51.380;10.326;2023-05-07T07:16:36;22.48;;;7.03;;
59880;SDS011;45751;51.380;10.326;2023-05-07T07:19:04;23.20;;;6.13;;
59880;SDS011;45751;51.380;10.326;2023-05-07T07:21:31;18.77;;;6.90;;
59880;SDS011;45751;51.380;10.326;2023-05-07T07:23:58;21.58;;;6.35;;
59880;SDS011;45751;51.380;10.326;2023-05-07T07:26:25;19.35;;;6.45;;
59880;SDS011;45751;51.380;10.326;2023-05-07T07:28:53;21.70;;;7.45;;
59880;SDS011;45751;51.380;10.326;2023-05-07T07:31:21;20.75;;;7.40;;
59880;SDS011;45751;51.380;10.326;2023-05-07T07:33:49;17.48;;;6.40;;
59880;SDS011;45751;51.380;10.326;2023-05-07T07:36:19;18.05;;;5.90;;
59880;SDS011;45751;51.380;10.326;2023-05-07T07:38:48;22.85;;;6.45;;
59880;SDS011;45751;51.380;10.326;2023-05-07T07:41:16;21.27;;;7.30;;
59880;SDS011;45751;51.380;10.326;2023-05-07T07:43:43;19.77;;;6.35;;
59880;SDS011;45751;51.380;10.326;2023-05-07T07:46:10;20.15;;;6.65;;
59880;SDS011;45751;51.380;10.326;2023-05-07T07:48:37;25.45;;;7.00;;
59880;SDS011;45751;51.380;10.326;2023-05-07T07:51:04;23.20;;;8.60;;
59880;SDS011;45751;51.380;10.326;2023-05-07T07:53:31;21.70;;;7.13;;
59880;SDS011;45751;51.380;10.326;2023-05-07T07:55:58;22.17;;;7.15;;
59880;SDS011;45751;51.380;10.326;2023-05-07T07:58:30;21.38;;;7.35;;
59880;SDS011;45751;51.380;10.326;2023-05-07T08:00:57;20.02;;;8.02;;
59880;SDS011;45751;51.380;10.326;2023-05-07T08:03:25;18.52;;;6.85;;
59880;SDS011;45751;51.380;10.326;2023-05-07T08:05:56;21.60;;;7.57;;
59880;SDS011;45751;51.380;10.326;2023-05-07T08:08:24;20.08;;;6.80;;
59880;SDS011;45751;51.380;10.326;2023-05-07T08:10:52;21.75;;;8.00;;
59880;SDS011;45751;51.380;10.326;2023-05-07T08:13:26;17.58;;;6.90;;
59880;SDS011;45751;51.380;10.326;2023-05-07T08:15:54;21.67;;;7.47;;
59880;SDS011;45751;51.380;10.326;2023-05-07T08:18:21;27.45;;;9.15;;
59880;SDS011;45751;51.380;10.326;2023-05-07T08:20:52;21.95;;;7.90;;
59880;SDS011;45751;51.380;10.326;2023-05-07T08:23:22;25.50;;;7.75;;
59880;SDS011;45751;51.380;10.326;2023-05-07T08:25:49;28.48;;;7.70;;
59880;SDS011;45751;51.380;10.326;2023-05-07T08:28:18;24.15;;;7.32;;
59880;SDS011;45751;51.380;10.326;2023-05-07T08:30:46;27.52;;;8.50;;
59880;SDS011;45751;51.380;10.326;2023-05-07T08:33:13;21.08;;;8.27;;
59880;SDS011;45751;51.380;10.326;2023-05-07T08:35:40;27.83;;;8.18;;
59880;SDS011;45751;51.380;10.326;2023-05-07T08:38:09;30.38;;;9.38;;
59880;SDS011;45751;51.380;10.326;2023-05-07T08:40:37;24.05;;;10.23;;
59880;SDS011;45751;51.380;10.326;2023-05-07T08:43:10;29.48;;;9.38;;
59880;SDS011;45751;51.380;10.326;2023-05-07T08:45:42;28.60;;;9.98;;
59880;SDS011;45751;51.380;10.326;2023-05-07T08:48:16;26.50;;;8.75;;
59880;SDS011;45751;51.380;10.326;2023-05-07T08:50:53;32.13;;;10.35;;
59880;SDS011;45751;51.380;10.326;2023-05-07T08:53:20;26.80;;;9.75;;
59880;SDS011;45751;51.380;10.326;2023-05-07T08:55:49;29.38;;;10.05;;
59880;SDS011;45751;51.380;10.326;2023-05-07T08:58:17;36.15;;;11.60;;
59880;SDS011;45751;51.380;10.326;2023-05-07T09:00:44;27.00;;;11.55;;
59880;SDS011;45751;51.380;10.326;2023-05-07T09:03:12;33.10;;;11.52;;
59880;SDS011;45751;51.380;10.326;2023-05-07T09:05:43;28.33;;;11.40;;
59880;SDS011;45751;51.380;10.326;2023-05-07T09:08:14;32.35;;;12.77;;
59880;SDS011;45751;51.380;10.326;2023-05-07T09:13:11;34.13;;;11.55;;
59880;SDS011;45751;51.380;10.326;2023-05-07T09:15:41;40.67;;;13.40;;
59880;SDS011;45751;51.380;10.326;2023-05-07T09:18:08;37.95;;;13.73;;
59880;SDS011;45751;51.380;10.326;2023-05-07T09:20:37;37.38;;;13.55;;
59880;SDS011;45751;51.380;10.326;2023-05-07T09:23:07;44.28;;;13.93;;
59880;SDS011;45751;51.380;10.326;2023-05-07T09:25:36;31.50;;;13.73;;
59880;SDS011;45751;51.380;10.326;2023-05-07T09:28:13;44.17;;;15.65;;
59880;SDS011;45751;51.380;10.326;2023-05-07T09:30:40;44.83;;;14.82;;
59880;SDS011;45751;51.380;10.326;2023-05-07T09:33:10;40.30;;;14.13;;
59880;SDS011;45751;51.380;10.326;2023-05-07T09:35:40;43.10;;;15.30;;
59880;SDS011;45751;51.380;10.326;2023-05-07T09:38:13;40.50;;;14.57;;
59880;SDS011;45751;51.380;10.326;2023-05-07T09:40:40;42.67;;;15.63;;
59880;SDS011;45751;51.380;10.326;2023-05-07T09:43:12;43.03;;;15.20;;
59880;SDS011;45751;51.380;10.326;2023-05-07T09:45:47;52.65;;;17.45;;
59880;SDS011;45751;51.380;10.326;2023-05-07T09:48:19;42.95;;;15.77;;
59880;SDS011;45751;51.380;10.326;2023-05-07T09:50:49;36.03;;;15.40;;
59880;SDS011;45751;51.380;10.326;2023-05-07T09:53:24;45.85;;;16.33;;
59880;SDS011;45751;51.380;10.326;2023-05-07T09:55:53;54.17;;;19.38;;
59880;SDS011;45751;51.380;10.326;2023-05-07T09:58:21;64.15;;;24.00;;
59880;SDS011;45751;51.380;10.326;2023-05-07T10:00:49;43.35;;;17.67;;
59880;SDS011;45751;51.380;10.326;2023-05-07T10:03:18;49.35;;;17.02;;
59880;SDS011;45751;51.380;10.326;2023-05-07T10:05:55;40.50;;;15.95;;
59880;SDS011;45751;51.380;10.326;2023-05-07T10:08:25;44.90;;;18.38;;
59880;SDS011;45751;51.380;10.326;2023-05-07T10:10:56;44.60;;;16.92;;
59880;SDS011;45751;51.380;10.326;2023-05-07T10:13:26;54.65;;;18.38;;
59880;SDS011;45751;51.380;10.326;2023-05-07T10:15:56;48.00;;;16.77;;
59880;SDS011;45751;51.380;10.326;2023-05-07T10:18:27;38.80;;;16.17;;
59880;SDS011;45751;51.380;10.326;2023-05-07T10:21:07;37.17;;;14.93;;
59880;SDS011;45751;51.380;10.326;2023-05-07T10:23:37;46.47;;;16.77;;
59880;SDS011;45751;51.380;10.326;2023-05-07T10:26:06;40.67;;;15.85;;
59880;SDS011;45751;51.380;10.326;2023-05-07T10:28:42;43.15;;;16.90;;
59880;SDS011;45751;51.380;10.326;2023-05-07T10:31:23;44.72;;;16.58;;
59880;SDS011;45751;51.380;10.326;2023-05-07T10:34:09;45.08;;;16.45;;
59880;SDS011;45751;51.380;10.326;2023-05-07T10:36:39;49.22;;;17.98;;
59880;SDS011;45751;51.380;10.326;2023-05-07T10:39:07;40.88;;;14.85;;
59880;SDS011;45751;51.380;10.326;2023-05-07T10:41:36;47.70;;;17.98;;
59880;SDS011;45751;51.380;10.326;2023-05-07T10:44:03;45.45;;;16.92;;
59880;SDS011;45751;51.380;10.326;2023-05-07T10:46:32;51.75;;;19.10;;
59880;SDS011;45751;51.380;10.326;2023-05-07T10:49:19;49.20;;;19.05;;
59880;SDS011;45751;51.380;10.326;2023-05-07T11:04:24;44.15;;;17.80;;
59880;SDS011;45751;51.380;10.326;2023-05-07T11:15:13;44.58;;;16.55;;
59880;SDS011;45751;51.380;10.326;2023-05-07T11:26:41;38.15;;;14.57;;
59880;SDS011;45751;51.380;10.326;2023-05-07T11:29:19;49.55;;;16.95;;
59880;SDS011;45751;51.380;10.326;2023-05-07T11:31:54;41.05;;;16.20;;
59880;SDS011;45751;51.380;10.326;2023-05-07T11:36:54;40.15;;;15.48;;
59880;SDS011;45751;51.380;10.326;2023-05-07T11:39:34;39.90;;;15.23;;
59880;SDS011;45751;51.380;10.326;2023-05-07T11:42:02;41.05;;;16.20;;
59880;SDS011;45751;51.380;10.326;2023-05-07T11:44:44;35.05;;;14.88;;
59880;SDS011;45751;51.380;10.326;2023-05-07T11:47:19;36.92;;;15.35;;
59880;SDS011;45751;51.380;10.326;2023-05-07T11:49:50;39.50;;;14.73;;
59880;SDS011;45751;51.380;10.326;2023-05-07T11:52:19;43.20;;;17.75;;
59880;SDS011;45751;51.380;10.326;2023-05-07T11:57:16;41.65;;;16.80;;
59880;SDS011;45751;51.380;10.326;2023-05-07T11:59:43;45.55;;;19.17;;
59880;SDS011;45751;51.380;10.326;2023-05-07T12:02:10;40.83;;;15.75;;
59880;SDS011;45751;51.380;10.326;2023-05-07T12:04:41;39.47;;;15.52;;
59880;SDS011;45751;51.380;10.326;2023-05-07T12:07:14;41.15;;;16.58;;
59880;SDS011;45751;51.380;10.326;2023-05-07T12:09:42;37.85;;;15.85;;
59880;SDS011;45751;51.380;10.326;2023-05-07T12:12:10;43.95;;;16.85;;
59880;SDS011;45751;51.380;10.326;2023-05-07T12:14:38;44.55;;;17.38;;
59880;SDS011;45751;51.380;10.326;2023-05-07T12:17:10;38.05;;;15.75;;
59880;SDS011;45751;51.380;10.326;2023-05-07T12:19:39;45.53;;;16.63;;
59880;SDS011;45751;51.380;10.326;2023-05-07T12:22:08;42.00;;;17.25;;
59880;SDS011;45751;51.380;10.326;2023-05-07T12:24:45;35.75;;;16.55;;
59880;SDS011;45751;51.380;10.326;2023-05-07T12:27:13;41.55;;;16.83;;
59880;SDS011;45751;51.380;10.326;2023-05-07T12:29:44;39.78;;;15.88;;
59880;SDS011;45751;51.380;10.326;2023-05-07T12:32:13;35.88;;;15.88;;
59880;SDS011;45751;51.380;10.326;2023-05-07T12:34:41;40.42;;;17.42;;
59880;SDS011;45751;51.380;10.326;2023-05-07T12:37:11;33.95;;;15.02;;
59880;SDS011;45751;51.380;10.326;2023-05-07T12:39:47;32.88;;;14.00;;
59880;SDS011;45751;51.380;10.326;2023-05-07T12:42:15;32.88;;;14.60;;
59880;SDS011;45751;51.380;10.326;2023-05-07T12:44:45;41.35;;;16.48;;
59880;SDS011;45751;51.380;10.326;2023-05-07T12:47:12;33.20;;;14.38;;
59880;SDS011;45751;51.380;10.326;2023-05-07T12:49:41;31.17;;;14.38;;
59880;SDS011;45751;51.380;10.326;2023-05-07T12:52:09;43.92;;;18.92;;
59880;SDS011;45751;51.380;10.326;2023-05-07T12:54:38;37.75;;;15.95;;
59880;SDS011;45751;51.380;10.326;2023-05-07T12:57:06;32.45;;;13.93;;
59880;SDS011;45751;51.380;10.326;2023-05-07T12:59:38;30.40;;;13.52;;
59880;SDS011;45751;51.380;10.326;2023-05-07T13:02:07;33.65;;;14.32;;
59880;SDS011;45751;51.380;10.326;2023-05-07T13:04:36;31.95;;;14.48;;
59880;SDS011;45751;51.380;10.326;2023-05-07T13:07:03;30.27;;;13.50;;
59880;SDS011;45751;51.380;10.326;2023-05-07T13:09:30;34.38;;;14.50;;
59880;SDS011;45751;51.380;10.326;2023-05-07T13:11:57;30.45;;;14.05;;
59880;SDS011;45751;51.380;10.326;2023-05-07T13:14:27;33.85;;;14.63;;
59880;SDS011;45751;51.380;10.326;2023-05-07T13:16:54;37.30;;;16.00;;
59880;SDS011;45751;51.380;10.326;2023-05-07T13:19:21;31.38;;;13.95;;
59880;SDS011;45751;51.380;10.326;2023-05-07T13:21:48;33.28;;;13.80;;
59880;SDS011;45751;51.380;10.326;2023-05-07T13:24:16;27.67;;;13.18;;
59880;SDS011;45751;51.380;10.326;2023-05-07T13:26:42;30.10;;;13.57;;
59880;SDS011;45751;51.380;10.326;2023-05-07T13:29:11;29.65;;;13.60;;
59880;SDS011;45751;51.380;10.326;2023-05-07T13:31:38;31.30;;;14.88;;
59880;SDS011;45751;51.380;10.326;2023-05-07T13:36:36;30.80;;;12.23;;
59880;SDS011;45751;51.380;10.326;2023-05-07T13:39:06;28.57;;;12.87;;
59880;SDS011;45751;51.380;10.326;2023-05-07T13:41:33;24.38;;;11.23;;
59880;SDS011;45751;51.380;10.326;2023-05-07T13:43:59;26.80;;;13.52;;
59880;SDS011;45751;51.380;10.326;2023-05-07T13:46:26;26.35;;;12.85;;
59880;SDS011;45751;51.380;10.326;2023-05-07T13:48:53;24.63;;;12.13;;
59880;SDS011;45751;51.380;10.326;2023-05-07T13:51:20;24.98;;;12.52;;
59880;SDS011;45751;51.380;10.326;2023-05-07T13:53:47;25.52;;;12.52;;
59880;SDS011;45751;51.380;10.326;2023-05-07T13:56:14;22.35;;;11.50;;
59880;SDS011;45751;51.380;10.326;2023-05-07T13:58:41;25.50;;;12.77;;
59880;SDS011;45751;51.380;10.326;2023-05-07T14:01:24;23.80;;;11.55;;
59880;SDS011;45751;51.380;10.326;2023-05-07T14:03:51;22.40;;;11.30;;
59880;SDS011;45751;51.380;10.326;2023-05-07T14:06:18;28.98;;;11.70;;
59880;SDS011;45751;51.380;10.326;2023-05-07T14:08:45;22.95;;;12.63;;
59880;SDS011;45751;51.380;10.326;2023-05-07T14:11:12;19.52;;;10.13;;
59880;SDS011;45751;51.380;10.326;2023-05-07T14:13:39;22.00;;;11.18;;
59880;SDS011;45751;51.380;10.326;2023-05-07T14:16:06;17.92;;;9.88;;
59880;SDS011;45751;51.380;10.326;2023-05-07T14:18:33;21.45;;;10.93;;
59880;SDS011;45751;51.380;10.326;2023-05-07T14:21:01;21.85;;;10.75;;
59880;SDS011;45751;51.380;10.326;2023-05-07T14:23:28;20.08;;;9.80;;
59880;SDS011;45751;51.380;10.326;2023-05-07T14:25:55;19.00;;;10.13;;
59880;SDS011;45751;51.380;10.326;2023-05-07T14:28:23;17.10;;;8.82;;
59880;SDS011;45751;51.380;10.326;2023-05-07T14:30:50;16.88;;;8.73;;
59880;SDS011;45751;51.380;10.326;2023-05-07T14:33:17;20.30;;;11.32;;
59880;SDS011;45751;51.380;10.326;2023-05-07T14:35:44;18.77;;;11.13;;
59880;SDS011;45751;51.380;10.326;2023-05-07T14:38:15;17.83;;;9.30;;
59880;SDS011;45751;51.380;10.326;2023-05-07T14:40:42;16.50;;;8.85;;
59880;SDS011;45751;51.380;10.326;2023-05-07T14:43:08;15.20;;;8.20;;
59880;SDS011;45751;51.380;10.326;2023-05-07T14:45:35;16.50;;;9.55;;
59880;SDS011;45751;51.380;10.326;2023-05-07T14:48:02;16.90;;;9.15;;
59880;SDS011;45751;51.380;10.326;2023-05-07T14:50:30;15.60;;;9.15;;
59880;SDS011;45751;51.380;10.326;2023-05-07T14:52:57;16.40;;;9.77;;
59880;SDS011;45751;51.380;10.326;2023-05-07T14:55:24;17.67;;;9.55;;
59880;SDS011;45751;51.380;10.326;2023-05-07T14:57:50;14.18;;;8.60;;
59880;SDS011;45751;51.380;10.326;2023-05-07T15:00:17;15.70;;;9.15;;